createdAt,value
2019-01-23T00:00:51.031Z,2.88
2019-01-23T00:10:51.145Z,2.45
2019-01-23T00:20:51.179Z,1.72
2019-01-23T00:30:51.081Z,2.16
2019-01-23T00:40:51.061Z,2.08
2019-01-23T00:50:51.076Z,2.15
2019-01-23T01:00:53.611Z,1.54
2019-01-23T01:10:51.108Z,1.17
2019-01-23T01:20:51.102Z,0.58
2019-01-23T01:30:50.992Z,1.04
2019-01-23T01:40:51.056Z,0.46
2019-01-23T01:50:51.023Z,0.22
2019-01-23T02:00:51.098Z,0.17
2019-01-23T02:10:51.108Z,0.02
2019-01-23T02:20:51.100Z,0.00
2019-01-23T02:30:51.160Z,0.02
2019-01-23T02:40:51.114Z,0.04
2019-01-23T02:50:54.700Z,0.02
2019-01-23T03:00:51.061Z,0.01
2019-01-23T03:10:51.164Z,0.03
2019-01-23T03:20:51.043Z,0.02
2019-01-23T03:30:51.693Z,0.28
2019-01-23T03:40:51.071Z,0.18
2019-01-23T03:50:51.138Z,0.05
2019-01-23T04:00:51.093Z,0.00
2019-01-23T04:10:51.111Z,0.00
2019-01-23T04:20:51.146Z,0.00
2019-01-23T04:30:51.179Z,0.06
2019-01-23T04:40:50.976Z,0.00
2019-01-23T04:50:51.140Z,0.03
2019-01-23T05:00:51.012Z,0.00
2019-01-23T05:10:51.053Z,0.28
2019-01-23T05:20:51.037Z,0.71
2019-01-23T05:30:51.883Z,0.24
2019-01-23T05:40:51.022Z,0.14
2019-01-23T05:50:51.109Z,0.12
2019-01-23T06:00:51.137Z,0.07
2019-01-23T06:10:51.054Z,0.01
2019-01-23T06:20:51.427Z,0.00
2019-01-23T06:30:51.193Z,0.00
2019-01-23T06:40:52.551Z,0.05
2019-01-23T06:50:50.961Z,0.01
2019-01-23T07:00:51.101Z,0.07
2019-01-23T07:10:51.408Z,0.02
2019-01-23T07:20:50.972Z,0.03
2019-01-23T07:30:50.946Z,0.04
2019-01-23T07:40:51.529Z,0.19
2019-01-23T07:50:50.991Z,0.15
2019-01-23T08:00:51.034Z,0.14
2019-01-23T08:10:51.348Z,0.09
2019-01-23T08:20:51.364Z,0.27
2019-01-23T08:30:51.113Z,0.07
2019-01-23T08:40:51.094Z,0.33
2019-01-23T08:50:51.145Z,0.44
2019-01-23T09:00:51.069Z,0.58
2019-01-23T09:10:51.387Z,1.22
2019-01-23T09:20:51.041Z,0.99
2019-01-23T09:30:52.946Z,1.35
2019-01-23T09:40:50.901Z,1.56
2019-01-23T09:50:51.026Z,0.94
2019-01-23T10:00:51.097Z,1.13
2019-01-23T10:10:51.306Z,1.76
2019-01-23T10:20:51.338Z,1.86
2019-01-23T10:30:51.521Z,1.34
2019-01-23T10:40:50.990Z,1.40
2019-01-23T10:50:51.477Z,1.31
2019-01-23T11:00:51.032Z,1.46
2019-01-23T11:10:51.600Z,1.11
2019-01-23T11:20:50.973Z,1.18
2019-01-23T11:30:51.058Z,1.00
2019-01-23T11:40:51.055Z,1.25
2019-01-23T11:50:51.017Z,1.31
2019-01-23T12:00:51.095Z,1.42
2019-01-23T12:10:51.184Z,1.81
2019-01-23T12:20:51.199Z,1.18
2019-01-23T12:30:51.007Z,1.13
2019-01-23T12:40:51.007Z,1.01
2019-01-23T12:50:50.909Z,1.16
2019-01-23T13:00:52.158Z,1.04
2019-01-23T13:10:51.262Z,1.06
2019-01-23T13:20:51.058Z,0.95
2019-01-23T13:30:50.911Z,0.97
2019-01-23T13:40:51.855Z,1.12
2019-01-23T13:50:51.016Z,1.31
2019-01-23T14:00:51.975Z,1.34
2019-01-23T14:10:51.319Z,1.25
2019-01-23T14:20:51.025Z,1.41
2019-01-23T14:30:51.107Z,1.10
2019-01-23T14:40:51.260Z,1.05
2019-01-23T14:50:50.998Z,1.06
2019-01-23T15:00:51.044Z,1.56
2019-01-23T15:10:50.872Z,1.17
2019-01-23T15:20:50.951Z,1.35
2019-01-23T15:30:50.931Z,1.12
2019-01-23T15:40:50.846Z,0.66
2019-01-23T15:50:50.929Z,0.45
2019-01-23T16:00:50.892Z,0.55
2019-01-23T16:10:50.898Z,0.84
2019-01-23T16:20:50.918Z,0.50
2019-01-23T16:30:50.812Z,0.71
2019-01-23T16:40:50.865Z,0.52
2019-01-23T16:50:50.916Z,0.34
2019-01-23T17:00:50.923Z,0.15
2019-01-23T17:10:50.897Z,0.11
2019-01-23T17:20:50.947Z,0.23
2019-01-23T17:30:51.634Z,0.04
2019-01-23T17:40:51.066Z,0.09
2019-01-23T17:50:52.261Z,0.13
2019-01-23T18:00:50.860Z,0.07
2019-01-23T18:10:50.900Z,0.43
2019-01-23T18:20:50.840Z,0.01
2019-01-23T18:30:50.875Z,0.05
2019-01-23T18:40:50.800Z,0.56
2019-01-23T18:50:50.817Z,0.69
2019-01-23T19:00:50.804Z,0.83
2019-01-23T19:10:50.946Z,0.71
2019-01-23T19:20:50.822Z,0.57
2019-01-23T19:30:50.841Z,0.69
2019-01-23T19:40:51.150Z,0.93
2019-01-23T19:50:50.835Z,0.77
2019-01-23T20:00:50.813Z,0.61
2019-01-23T20:10:50.858Z,0.58
2019-01-23T20:20:50.862Z,0.30
2019-01-23T20:30:50.808Z,0.17
2019-01-23T20:40:50.871Z,0.38
2019-01-23T20:50:50.785Z,0.62
2019-01-23T21:00:50.766Z,0.55
2019-01-23T21:10:50.805Z,0.35
2019-01-23T21:20:50.789Z,0.47
2019-01-23T21:30:50.761Z,0.55
2019-01-23T21:40:50.800Z,0.73
2019-01-23T21:50:50.772Z,0.55
2019-01-23T22:00:50.723Z,0.74
2019-01-23T22:10:50.863Z,0.55
2019-01-23T22:20:50.780Z,0.53
2019-01-23T22:30:50.752Z,0.17
2019-01-23T22:40:50.774Z,0.38
2019-01-23T22:50:50.829Z,0.62
2019-01-23T23:00:50.915Z,0.57
2019-01-23T23:10:50.754Z,0.62
2019-01-23T23:20:50.747Z,0.66
2019-01-23T23:30:50.812Z,0.21
2019-01-23T23:40:50.675Z,0.55
2019-01-23T23:50:50.753Z,0.93
